Time;durP1;ratioP1;P1;durP2;ratioP2;P2;SDS_P1;SDS_P2;PMS_P1;PMS_P2;Temp;Humidity;BMP_temperature;BMP_pressure;BME280_temperature;BME280_humidity;BME280_pressure;Samples;Min_cycle;Max_cycle;Signal;HPM_P1;HPM_P2
2021/03/18 05:10:31;;;;;;;1.20;1.20;;;3.50;99.90;;;;;;6063190;23;20187;31
2021/03/18 05:13:00;;;;;;;1.20;1.20;;;4.00;99.90;;;;;;4955581;29;20213;-78
2021/03/18 05:15:27;;;;;;;1.30;1.30;;;3.60;99.90;;;;;;4957245;29;20205;-78
2021/03/18 05:17:54;;;;;;;1.20;1.20;;;3.50;99.90;;;;;;4957201;29;20217;-78
2021/03/18 05:20:23;;;;;;;1.30;1.30;;;3.30;99.90;;;;;;4956669;29;20230;-78
2021/03/18 05:22:51;;;;;;;1.20;1.20;;;3.30;99.90;;;;;;4956783;29;20249;-78
2021/03/18 05:25:21;;;;;;;1.50;1.50;;;3.40;99.90;;;;;;4969832;23;20278;-80
2021/03/18 05:27:48;;;;;;;1.20;1.20;;;3.50;99.90;;;;;;4994603;28;20291;-79
2021/03/18 05:30:16;;;;;;;1.37;1.37;;;3.20;99.90;;;;;;5015572;28;20196;-79
2021/03/18 05:32:44;;;;;;;1.33;1.33;;;3.30;99.90;;;;;;5016659;28;20199;-79
2021/03/18 05:35:29;;;;;;;1.13;1.13;;;3.30;99.90;;;;;;5015313;28;20237;-77
2021/03/18 05:37:56;;;;;;;1.13;1.13;;;3.30;99.90;;;;;;5015984;28;20207;-79
2021/03/18 05:40:24;;;;;;;1.30;1.30;;;3.40;99.90;;;;;;5017033;28;20254;-79
2021/03/18 05:42:52;;;;;;;1.40;1.40;;;3.40;99.90;;;;;;5015994;28;20211;-80
2021/03/18 05:45:20;;;;;;;1.10;1.10;;;3.40;99.90;;;;;;5015130;28;20281;-80
2021/03/18 05:47:48;;;;;;;1.20;1.20;;;3.40;99.90;;;;;;5014751;28;20208;-80
2021/03/18 05:50:18;;;;;;;1.20;1.20;;;3.30;99.90;;;;;;5015230;28;20199;-80
2021/03/18 05:52:45;;;;;;;1.20;1.20;;;3.30;99.90;;;;;;5014629;28;20215;-80
2021/03/18 05:55:14;;;;;;;1.23;1.23;;;3.20;99.90;;;;;;5016320;28;20281;-79
2021/03/18 05:57:42;;;;;;;1.30;1.30;;;3.20;99.90;;;;;;5015502;28;20211;-81
2021/03/18 06:00:13;;;;;;;1.40;1.40;;;3.30;99.90;;;;;;5015060;28;20215;-79
2021/03/18 06:02:41;;;;;;;1.30;1.30;;;3.30;99.90;;;;;;5016564;28;20290;-79
2021/03/18 06:05:10;;;;;;;1.50;1.50;;;2.90;99.90;;;;;;5015150;28;20223;-78
2021/03/18 06:07:38;;;;;;;1.30;1.30;;;3.20;99.90;;;;;;5005405;28;20211;-78
2021/03/18 06:10:06;;;;;;;1.20;1.20;;;3.20;99.90;;;;;;5006757;28;20253;-80
2021/03/18 06:12:33;;;;;;;1.40;1.40;;;3.20;99.90;;;;;;4997324;28;20200;-79
2021/03/18 06:15:00;;;;;;;1.10;1.10;;;3.00;99.90;;;;;;4996985;28;20435;-79
2021/03/18 06:17:33;;;;;;;1.20;1.20;;;3.10;99.90;;;;;;4995693;28;20638;-79
2021/03/18 06:20:03;;;;;;;1.23;1.23;;;3.20;99.90;;;;;;4995792;28;20648;-78
2021/03/18 06:22:33;;;;;;;1.20;1.20;;;3.20;99.90;;;;;;4995000;28;20200;-80
2021/03/18 06:25:01;;;;;;;1.20;1.20;;;2.80;99.90;;;;;;4995222;28;20511;-79
2021/03/18 06:27:28;;;;;;;1.27;1.27;;;3.00;99.90;;;;;;4993323;28;20212;-81
2021/03/18 06:29:56;;;;;;;1.30;1.30;;;3.10;99.90;;;;;;4994526;28;20200;-79
2021/03/18 06:32:25;;;;;;;1.20;1.20;;;3.30;99.90;;;;;;4992527;28;20266;-78
2021/03/18 06:34:55;;;;;;;1.50;1.50;;;3.20;99.90;;;;;;4992256;28;20251;-78
2021/03/18 06:37:36;;;;;;;1.30;1.30;;;3.10;99.90;;;;;;4992589;28;20367;-78
2021/03/18 06:40:13;;;;;;;1.40;1.40;;;3.30;99.90;;;;;;4992106;28;20231;-78
2021/03/18 06:42:43;;;;;;;1.20;1.20;;;3.30;99.90;;;;;;4992283;28;20203;-78
2021/03/18 06:45:12;;;;;;;1.20;1.20;;;3.20;99.90;;;;;;4993385;28;20228;-80
2021/03/18 06:47:44;;;;;;;1.60;1.60;;;3.10;99.90;;;;;;4993835;28;20204;-79
2021/03/18 06:50:14;;;;;;;1.50;1.50;;;3.10;99.90;;;;;;4993718;28;20231;-78
2021/03/18 06:52:43;;;;;;;1.10;1.10;;;3.20;99.90;;;;;;4993672;28;20626;-78
2021/03/18 06:55:13;;;;;;;1.20;1.20;;;3.20;99.90;;;;;;4993012;28;20274;-80
2021/03/18 06:57:40;;;;;;;1.30;1.30;;;3.20;99.90;;;;;;4993146;28;20204;-77
2021/03/18 07:00:10;;;;;;;1.50;1.50;;;3.30;99.90;;;;;;4992198;28;20226;-79
2021/03/18 07:02:41;;;;;;;1.20;1.20;;;3.30;99.90;;;;;;4992859;28;20211;-77
2021/03/18 07:08:04;;;;;;;1.30;1.30;;;3.60;99.90;;;;;;5109086;27;21108;-77
2021/03/18 07:10:33;;;;;;;1.47;1.47;;;3.80;99.90;;;;;;5109259;28;20200;-77
2021/03/18 07:13:16;;;;;;;1.30;1.30;;;3.80;99.90;;;;;;5109165;28;20279;-77
2021/03/18 07:15:44;;;;;;;1.30;1.30;;;3.90;99.90;;;;;;5109567;28;20257;-77
2021/03/18 07:18:11;;;;;;;1.30;1.30;;;4.00;99.90;;;;;;5109404;28;20793;-77
2021/03/18 07:20:39;;;;;;;1.20;1.20;;;4.20;99.90;;;;;;5109464;28;20196;-76
2021/03/18 07:23:16;;;;;;;1.23;1.23;;;4.40;99.90;;;;;;5109194;28;20195;-76
2021/03/18 07:25:48;;;;;;;1.20;1.20;;;4.10;99.90;;;;;;5120743;28;20211;-79
2021/03/18 07:28:23;;;;;;;1.43;1.43;;;3.90;99.90;;;;;;5131080;28;20192;-77
2021/03/18 07:30:51;;;;;;;1.10;1.10;;;3.80;99.90;;;;;;5117231;28;20188;-79
2021/03/18 07:33:20;;;;;;;1.27;1.27;;;3.90;99.90;;;;;;5116329;28;20230;-76
2021/03/18 07:35:48;;;;;;;1.30;1.30;;;4.20;99.90;;;;;;5108450;28;20616;-77
2021/03/18 07:38:15;;;;;;;1.30;1.30;;;4.10;99.90;;;;;;5101975;28;20648;-77
2021/03/18 07:40:42;;;;;;;1.40;1.40;;;4.10;99.90;;;;;;5102075;28;20295;-77
2021/03/18 07:43:10;;;;;;;1.10;1.10;;;4.30;99.90;;;;;;5108248;28;20353;-77
2021/03/18 07:45:37;;;;;;;1.30;1.30;;;4.20;99.90;;;;;;5108195;28;20253;-77
2021/03/18 07:48:06;;;;;;;1.40;1.40;;;4.30;99.90;;;;;;5107967;28;20306;-77
2021/03/18 07:50:36;;;;;;;1.30;1.30;;;4.30;99.90;;;;;;5108558;28;20196;-76
2021/03/18 07:53:04;;;;;;;1.47;1.47;;;4.10;99.90;;;;;;5104521;28;20200;-79
2021/03/18 07:55:33;;;;;;;1.30;1.30;;;4.20;99.90;;;;;;5104014;28;20216;-76
2021/03/18 07:58:00;;;;;;;1.37;1.37;;;4.30;99.90;;;;;;5105500;28;20200;-77
2021/03/18 08:00:31;;;;;;;1.20;1.20;;;4.20;99.90;;;;;;5107865;28;20200;-76
2021/03/18 08:03:27;;;;;;;1.27;1.27;;;4.40;99.90;;;;;;5107888;28;20204;-77
2021/03/18 08:05:55;;;;;;;1.20;1.20;;;4.40;99.90;;;;;;5107663;28;20228;-77
2021/03/18 08:08:46;;;;;;;1.30;1.30;;;4.40;99.90;;;;;;5107710;28;20218;-76
2021/03/18 08:11:16;;;;;;;1.20;1.20;;;4.30;99.90;;;;;;5091404;28;20204;-77
2021/03/18 08:13:44;;;;;;;1.20;1.20;;;4.50;99.90;;;;;;5107127;28;20199;-78
2021/03/18 08:16:29;;;;;;;1.47;1.47;;;4.70;99.90;;;;;;5107766;28;20228;-76
2021/03/18 08:18:57;;;;;;;1.30;1.30;;;4.60;99.90;;;;;;5076538;28;20201;-77
2021/03/18 08:21:35;;;;;;;1.00;1.00;;;4.70;99.90;;;;;;5073755;28;20202;-77
2021/03/18 08:24:04;;;;;;;1.37;1.37;;;4.60;99.90;;;;;;5073573;28;20185;-78
2021/03/18 08:26:43;;;;;;;1.30;1.30;;;4.70;99.90;;;;;;5080506;28;20231;-78
2021/03/18 08:29:14;;;;;;;1.40;1.40;;;4.60;99.90;;;;;;5093748;28;20660;-77
2021/03/18 08:31:50;;;;;;;1.30;1.30;;;4.70;99.90;;;;;;5093739;28;20212;-77
2021/03/18 08:34:19;;;;;;;1.20;1.20;;;4.80;99.90;;;;;;5093634;28;20196;-77
2021/03/18 08:36:57;;;;;;;1.30;1.30;;;4.70;99.90;;;;;;5093291;28;20224;-76
2021/03/18 08:39:40;;;;;;;1.40;1.40;;;4.80;99.90;;;;;;5093057;28;20216;-77
2021/03/18 08:42:36;;;;;;;1.20;1.20;;;4.70;99.90;;;;;;5093695;28;20274;-76
2021/03/18 08:45:07;;;;;;;1.20;1.20;;;4.80;99.90;;;;;;5093566;28;20883;-76
2021/03/18 08:47:39;;;;;;;1.40;1.40;;;5.00;99.90;;;;;;5094495;28;20256;-78
2021/03/18 08:50:10;;;;;;;1.33;1.33;;;5.00;99.90;;;;;;5094833;28;20243;-76
2021/03/18 08:52:39;;;;;;;1.30;1.30;;;5.00;99.90;;;;;;5094385;28;20234;-78
2021/03/18 08:55:08;;;;;;;1.10;1.10;;;5.00;99.90;;;;;;5093887;28;20221;-77
2021/03/18 08:57:36;;;;;;;1.20;1.20;;;5.20;99.90;;;;;;5094088;28;20251;-76
2021/03/18 09:00:15;;;;;;;1.17;1.17;;;5.00;99.90;;;;;;5094500;28;20216;-78
2021/03/18 09:02:45;;;;;;;1.40;1.40;;;4.90;99.90;;;;;;5093993;28;20637;-77
2021/03/18 09:05:15;;;;;;;1.40;1.40;;;5.00;99.90;;;;;;5094129;28;20223;-79
2021/03/18 09:07:51;;;;;;;1.00;1.00;;;5.40;99.90;;;;;;5094221;28;20672;-79
2021/03/18 09:10:21;;;;;;;1.20;1.20;;;5.50;99.90;;;;;;5094184;28;20856;-79
2021/03/18 09:12:50;;;;;;;1.30;1.30;;;5.70;99.90;;;;;;5093942;28;20762;-81
2021/03/18 09:15:24;;;;;;;1.40;1.40;;;6.00;99.90;;;;;;5093792;28;20231;-78
2021/03/18 09:17:54;;;;;;;1.30;1.30;;;5.80;99.90;;;;;;5093747;28;20200;-78
2021/03/18 09:20:25;;;;;;;1.13;1.13;;;5.80;99.90;;;;;;5091948;28;20676;-79
2021/03/18 09:22:53;;;;;;;1.20;1.20;;;5.90;99.90;;;;;;5091154;28;20714;-79
2021/03/18 09:25:26;;;;;;;1.30;1.30;;;5.60;99.90;;;;;;5090992;28;20216;-80
2021/03/18 09:27:53;;;;;;;1.33;1.33;;;5.70;99.90;;;;;;5093031;28;20228;-77
2021/03/18 09:30:27;;;;;;;1.30;1.30;;;5.80;99.90;;;;;;5091457;28;20205;-80
2021/03/18 09:32:55;;;;;;;1.13;1.13;;;5.80;99.90;;;;;;5092028;28;20201;-80
2021/03/18 09:35:24;;;;;;;1.20;1.20;;;5.80;99.90;;;;;;5092941;28;20244;-78
2021/03/18 09:37:57;;;;;;;1.27;1.27;;;5.90;99.90;;;;;;5093302;28;20192;-76
2021/03/18 09:40:32;;;;;;;1.20;1.20;;;6.00;99.90;;;;;;5093606;28;20212;-77
2021/03/18 09:43:00;;;;;;;1.23;1.23;;;6.10;99.90;;;;;;5093815;28;20228;-79
2021/03/18 09:45:28;;;;;;;1.30;1.30;;;6.40;99.90;;;;;;5093926;28;20229;-77
2021/03/18 09:47:55;;;;;;;1.00;1.00;;;6.30;99.90;;;;;;5093600;28;20261;-80
2021/03/18 09:50:27;;;;;;;1.20;1.20;;;6.60;99.90;;;;;;5094488;28;20205;-79
2021/03/18 09:53:10;;;;;;;1.20;1.20;;;6.40;99.90;;;;;;5099807;28;20179;-84
2021/03/18 09:55:38;;;;;;;1.30;1.30;;;6.60;99.90;;;;;;5117624;28;20205;-77
2021/03/18 09:58:12;;;;;;;1.10;1.10;;;6.50;99.90;;;;;;5097937;28;20205;-77
2021/03/18 10:00:40;;;;;;;1.13;1.13;;;6.40;99.90;;;;;;5108884;28;20701;-78
2021/03/18 10:03:07;;;;;;;1.20;1.20;;;6.30;99.90;;;;;;5091033;28;20594;-77
2021/03/18 10:05:35;;;;;;;1.40;1.40;;;6.30;99.90;;;;;;5090729;28;20216;-78
2021/03/18 10:08:03;;;;;;;1.07;1.07;;;6.20;99.90;;;;;;5089933;28;20223;-78
2021/03/18 10:10:33;;;;;;;1.30;1.30;;;6.00;99.90;;;;;;5091677;28;20204;-78
2021/03/18 10:13:02;;;;;;;1.10;1.10;;;6.10;99.90;;;;;;5092367;28;20212;-78
2021/03/18 10:15:30;;;;;;;1.23;1.23;;;6.30;99.90;;;;;;5092456;28;20224;-77
2021/03/18 10:17:58;;;;;;;1.20;1.20;;;6.60;99.90;;;;;;5093878;28;20575;-76
2021/03/18 10:20:31;;;;;;;1.10;1.10;;;6.50;99.90;;;;;;5095431;28;20195;-76
2021/03/18 10:23:01;;;;;;;1.10;1.10;;;6.50;99.90;;;;;;5093591;28;20200;-77
2021/03/18 10:25:30;;;;;;;1.20;1.20;;;6.60;99.90;;;;;;5094280;28;20308;-79
2021/03/18 10:28:05;;;;;;;1.20;1.20;;;6.90;99.90;;;;;;5092874;28;20224;-77
2021/03/18 10:30:33;;;;;;;1.30;1.30;;;7.30;99.90;;;;;;5093001;28;20207;-79
2021/03/18 10:33:07;;;;;;;1.10;1.10;;;7.20;99.90;;;;;;5093515;28;20263;-77
2021/03/18 10:35:35;;;;;;;1.10;1.10;;;;;;;;;;5093963;28;20246;-77
2021/03/18 10:38:03;;;;;;;1.30;1.30;;;7.40;99.90;;;;;;5086198;28;20253;-79
2021/03/18 10:40:37;;;;;;;1.30;1.30;;;7.30;99.90;;;;;;5085240;28;20198;-79
2021/03/18 10:43:23;;;;;;;1.20;1.20;;;7.20;99.90;;;;;;5090951;28;20208;-77
2021/03/18 10:45:52;;;;;;;1.00;1.00;;;7.60;99.90;;;;;;5090445;28;20574;-78
2021/03/18 10:48:22;;;;;;;1.00;1.00;;;8.30;99.90;;;;;;5092990;28;20231;-76
2021/03/18 10:50:50;;;;;;;1.30;1.30;;;8.20;99.90;;;;;;5092892;28;20208;-78
2021/03/18 10:53:19;;;;;;;1.00;1.00;;;7.80;99.90;;;;;;5092044;28;20205;-80
2021/03/18 10:56:09;;;;;;;1.10;1.10;;;7.40;99.90;;;;;;5092185;28;20220;-80
2021/03/18 10:58:37;;;;;;;1.07;1.07;;;7.00;99.90;;;;;;5092505;28;20197;-77
2021/03/18 11:01:07;;;;;;;1.20;1.20;;;7.00;99.90;;;;;;5093021;28;20200;-80
2021/03/18 11:03:37;;;;;;;1.30;1.30;;;7.00;99.90;;;;;;5092418;28;20204;-77
2021/03/18 11:06:14;;;;;;;1.00;1.00;;;6.80;99.90;;;;;;5091573;28;20232;-78
2021/03/18 11:08:42;;;;;;;1.20;1.20;;;7.00;99.90;;;;;;5092691;28;20216;-79
2021/03/18 11:11:13;;;;;;;1.10;1.10;;;6.90;99.90;;;;;;5091293;28;20250;-79
2021/03/18 11:13:42;;;;;;;1.10;1.10;;;;;;;;;;5090751;28;20211;-77
2021/03/18 11:16:11;;;;;;;1.10;1.10;;;7.20;99.90;;;;;;5090691;28;20216;-77
2021/03/18 11:18:41;;;;;;;1.13;1.13;;;7.30;99.90;;;;;;5091338;28;20212;-77
2021/03/18 11:21:22;;;;;;;1.20;1.20;;;7.70;99.90;;;;;;5091817;28;20240;-77
2021/03/18 11:23:52;;;;;;;1.10;1.10;;;7.80;99.90;;;;;;5081163;28;20200;-79
2021/03/18 11:26:21;;;;;;;1.00;1.00;;;7.80;99.90;;;;;;5077927;28;20232;-78
2021/03/18 11:28:51;;;;;;;1.05;1.05;;;7.50;99.90;;;;;;5079806;22;20255;-76
2021/03/18 11:31:21;;;;;;;1.00;1.00;;;7.30;99.90;;;;;;5042722;28;20214;-80
2021/03/18 11:33:48;;;;;;;1.27;1.27;;;7.10;99.90;;;;;;5056486;28;20557;-78
2021/03/18 11:36:15;;;;;;;1.13;1.13;;;7.00;99.90;;;;;;5043908;28;20206;-78
2021/03/18 11:38:43;;;;;;;1.10;1.10;;;;;;;;;;5033619;28;20219;-78
2021/03/18 11:41:10;;;;;;;1.20;1.20;;;6.30;99.90;;;;;;5033405;28;20206;-78
2021/03/18 11:43:37;;;;;;;1.20;1.20;;;6.20;99.90;;;;;;5033821;28;20202;-78
2021/03/18 11:46:05;;;;;;;1.10;1.10;;;6.10;99.90;;;;;;5034396;28;20202;-78
2021/03/18 11:48:33;;;;;;;1.20;1.20;;;6.10;99.90;;;;;;5035476;28;20261;-78
2021/03/18 11:51:01;;;;;;;1.20;1.20;;;6.20;99.90;;;;;;5034920;28;20225;-79
2021/03/18 11:53:28;;;;;;;1.20;1.20;;;6.10;99.90;;;;;;5036556;28;20338;-78
2021/03/18 11:55:55;;;;;;;1.27;1.27;;;6.00;99.90;;;;;;5038000;28;20203;-79
2021/03/18 11:58:22;;;;;;;1.30;1.30;;;5.70;99.90;;;;;;5036664;28;20699;-78
2021/03/18 12:00:49;;;;;;;1.00;1.00;;;5.70;99.90;;;;;;5038563;28;20202;-77
2021/03/18 12:03:16;;;;;;;1.20;1.20;;;5.70;99.90;;;;;;5039852;28;20261;-77
2021/03/18 12:05:45;;;;;;;1.10;1.10;;;5.60;99.90;;;;;;5038658;28;20278;-79
2021/03/18 12:08:12;;;;;;;1.30;1.30;;;5.80;99.90;;;;;;5040804;28;20248;-78
2021/03/18 12:10:58;;;;;;;1.33;1.33;;;6.00;99.90;;;;;;5040287;28;20305;-78
2021/03/18 12:13:26;;;;;;;1.13;1.13;;;;;;;;;;5039230;28;20226;-78
2021/03/18 12:15:54;;;;;;;1.00;1.00;;;6.10;99.90;;;;;;5038439;28;20686;-78
2021/03/18 12:18:22;;;;;;;1.20;1.20;;;6.30;99.90;;;;;;5035835;28;20223;-78
2021/03/18 12:20:50;;;;;;;1.20;1.20;;;6.40;99.90;;;;;;5037296;28;20198;-78
2021/03/18 12:23:18;;;;;;;1.20;1.20;;;6.60;99.90;;;;;;5039226;28;20210;-79
2021/03/18 12:25:45;;;;;;;1.10;1.10;;;7.10;99.90;;;;;;5038279;28;20264;-78
2021/03/18 12:28:12;;;;;;;1.10;1.10;;;7.10;99.90;;;;;;5035056;28;20493;-77
2021/03/18 12:30:40;;;;;;;1.20;1.20;;;7.30;99.90;;;;;;5055242;28;20260;-78
2021/03/18 12:33:07;;;;;;;1.20;1.20;;;7.30;99.90;;;;;;5054960;28;20252;-77
2021/03/18 12:35:35;;;;;;;1.00;1.00;;;7.30;99.90;;;;;;5053812;28;20563;-78
2021/03/18 12:38:03;;;;;;;1.17;1.17;;;7.70;99.90;;;;;;5055947;28;20271;-77
2021/03/18 12:40:29;;;;;;;1.10;1.10;;;7.70;99.90;;;;;;5055988;28;20279;-77
2021/03/18 12:42:57;;;;;;;1.13;1.13;;;7.90;99.90;;;;;;5055179;28;20198;-77
2021/03/18 12:45:24;;;;;;;1.02;1.02;;;8.20;99.90;;;;;;5054469;28;20202;-77
2021/03/18 12:47:51;;;;;;;1.00;1.00;;;8.20;99.90;;;;;;5054278;28;20226;-76
2021/03/18 12:50:20;;;;;;;1.00;1.00;;;8.20;99.90;;;;;;5057425;28;20208;-82
2021/03/18 12:52:47;;;;;;;1.10;1.10;;;8.20;99.90;;;;;;5056604;28;20616;-78
2021/03/18 12:55:16;;;;;;;1.17;1.17;;;8.30;99.90;;;;;;5055138;28;20204;-76
2021/03/18 12:57:51;;;;;;;1.17;1.17;;;7.90;99.90;;;;;;5055789;28;20222;-77
2021/03/18 13:00:21;;;;;;;1.10;1.10;;;7.80;99.90;;;;;;5046165;28;20663;-79
2021/03/18 13:02:48;;;;;;;1.00;1.00;;;7.60;99.90;;;;;;5034824;28;20207;-80
2021/03/18 13:05:16;;;;;;;1.20;1.20;;;7.50;99.90;;;;;;5033609;28;20260;-77
2021/03/18 13:07:43;;;;;;;1.20;1.20;;;7.20;99.90;;;;;;5033782;28;20230;-78
2021/03/18 13:10:13;;;;;;;1.20;1.20;;;6.90;99.90;;;;;;5033949;28;20213;-78
2021/03/18 13:12:41;;;;;;;1.20;1.20;;;6.60;99.90;;;;;;5036001;28;20211;-77
2021/03/18 13:15:09;;;;;;;1.10;1.10;;;6.50;99.90;;;;;;5033503;28;20560;-76
2021/03/18 13:17:37;;;;;;;1.00;1.00;;;6.50;99.90;;;;;;5033621;28;20650;-78
2021/03/18 13:20:06;;;;;;;1.23;1.23;;;6.60;99.90;;;;;;5035031;28;20206;-81
2021/03/18 13:22:33;;;;;;;1.20;1.20;;;6.50;99.90;;;;;;5035512;28;20202;-83
2021/03/18 13:25:01;;;;;;;1.10;1.10;;;6.70;99.90;;;;;;5035584;28;20447;-78
2021/03/18 13:27:27;;;;;;;1.20;1.20;;;7.10;99.90;;;;;;5034979;28;20849;-83
2021/03/18 13:29:55;;;;;;;1.10;1.10;;;7.10;99.90;;;;;;5033303;28;20277;-78
2021/03/18 13:32:22;;;;;;;1.17;1.17;;;6.90;99.90;;;;;;5033499;28;20745;-80
2021/03/18 13:34:50;;;;;;;1.30;1.30;;;6.90;99.90;;;;;;5033518;28;20194;-78
2021/03/18 13:37:17;;;;;;;1.20;1.20;;;6.80;99.90;;;;;;5033981;28;20202;-78
2021/03/18 13:39:44;;;;;;;1.10;1.10;;;6.70;99.90;;;;;;5034828;28;20229;-78
2021/03/18 13:42:12;;;;;;;1.10;1.10;;;6.70;99.90;;;;;;5034965;28;20230;-78
2021/03/18 13:44:39;;;;;;;1.10;1.10;;;6.90;99.90;;;;;;5034182;28;20198;-77
2021/03/18 13:47:07;;;;;;;1.20;1.20;;;7.10;99.90;;;;;;5033970;28;20229;-78
2021/03/18 13:49:34;;;;;;;1.10;1.10;;;7.10;99.90;;;;;;5021845;28;20230;-78
2021/03/18 13:52:02;;;;;;;1.30;1.30;;;7.20;99.90;;;;;;5030356;28;20655;-77
2021/03/18 13:54:38;;;;;;;1.30;1.30;;;7.60;99.90;;;;;;5032259;28;20202;-78
2021/03/18 13:57:05;;;;;;;1.10;1.10;;;7.80;99.90;;;;;;5034593;28;20190;-77
2021/03/18 13:59:32;;;;;;;1.10;1.10;;;7.90;99.90;;;;;;5024398;28;20219;-77
2021/03/18 14:02:15;;;;;;;1.10;1.10;;;8.10;99.90;;;;;;5029168;28;20671;-77
2021/03/18 14:04:42;;;;;;;1.10;1.10;;;7.90;99.90;;;;;;5030674;28;20717;-77
2021/03/18 14:07:09;;;;;;;1.10;1.10;;;7.90;99.90;;;;;;5035289;28;20617;-77
2021/03/18 14:09:36;;;;;;;1.13;1.13;;;8.50;99.90;;;;;;5031678;28;20234;-77
2021/03/18 14:12:04;;;;;;;1.10;1.10;;;8.40;99.90;;;;;;5031322;28;20198;-77
2021/03/18 14:14:31;;;;;;;1.10;1.10;;;8.80;99.90;;;;;;5031982;28;20210;-77
2021/03/18 14:16:58;;;;;;;1.10;1.10;;;8.40;99.90;;;;;;5030550;28;20217;-77
2021/03/18 14:19:26;;;;;;;1.10;1.10;;;8.60;99.90;;;;;;5031413;28;20292;-77
2021/03/18 14:21:53;;;;;;;1.15;1.15;;;8.40;99.90;;;;;;5031798;28;20253;-76
2021/03/18 14:24:22;;;;;;;1.10;1.10;;;8.40;99.90;;;;;;5031564;28;20297;-76
2021/03/18 14:26:49;;;;;;;1.10;1.10;;;7.70;99.90;;;;;;5031574;28;20265;-81
2021/03/18 14:29:16;;;;;;;1.13;1.13;;;7.70;99.90;;;;;;5032144;28;20288;-81
2021/03/18 14:31:43;;;;;;;0.93;0.93;;;7.50;99.90;;;;;;5035302;28;20195;-80
2021/03/18 14:34:12;;;;;;;1.17;1.17;;;7.50;99.90;;;;;;5037583;28;20207;-81
2021/03/18 14:36:39;;;;;;;1.00;1.00;;;7.20;99.90;;;;;;5035122;28;20849;-80
2021/03/18 14:39:06;;;;;;;1.10;1.10;;;7.30;99.90;;;;;;5034547;28;20695;-81
2021/03/18 14:41:34;;;;;;;1.20;1.20;;;;;;;;;;5024147;28;20210;-81
2021/03/18 14:44:01;;;;;;;1.20;1.20;;;7.60;99.90;;;;;;5032274;28;20209;-81
2021/03/18 14:46:28;;;;;;;1.10;1.10;;;7.70;99.90;;;;;;5032380;28;20687;-80
2021/03/18 14:48:55;;;;;;;1.00;1.00;;;7.60;99.90;;;;;;5030772;28;20226;-80
2021/03/18 14:51:24;;;;;;;1.10;1.10;;;7.40;99.90;;;;;;5031691;28;20570;-80
2021/03/18 14:53:52;;;;;;;0.98;0.98;;;7.60;99.90;;;;;;5031446;28;20195;-81
2021/03/18 14:56:19;;;;;;;1.00;1.00;;;7.80;99.90;;;;;;5031466;28;20678;-81
2021/03/18 14:59:06;;;;;;;1.10;1.10;;;7.70;99.90;;;;;;5031935;28;20254;-81
2021/03/18 15:01:33;;;;;;;1.10;1.10;;;7.20;99.90;;;;;;5046463;28;20195;-81
2021/03/18 15:04:01;;;;;;;1.20;1.20;;;6.90;99.90;;;;;;5031893;28;20213;-79
2021/03/18 15:06:28;;;;;;;1.10;1.10;;;6.80;99.90;;;;;;5031872;28;20198;-77
2021/03/18 15:08:56;;;;;;;1.23;1.23;;;;;;;;;;5031239;28;20313;-76
2021/03/18 15:11:23;;;;;;;1.30;1.30;;;6.10;99.90;;;;;;5031876;28;20198;-76
2021/03/18 15:13:50;;;;;;;1.20;1.20;;;5.90;99.90;;;;;;5031789;28;20226;-76
2021/03/18 15:16:17;;;;;;;1.20;1.20;;;5.90;99.90;;;;;;5031022;28;20210;-77
2021/03/18 15:18:44;;;;;;;1.10;1.10;;;6.20;99.90;;;;;;5031647;28;20218;-77
2021/03/18 15:21:11;;;;;;;1.20;1.20;;;6.30;99.90;;;;;;5031582;28;20585;-77
2021/03/18 15:23:38;;;;;;;1.00;1.00;;;6.60;99.90;;;;;;5031208;28;20241;-77
2021/03/18 15:26:06;;;;;;;1.10;1.10;;;6.80;99.90;;;;;;5031264;28;20209;-77
2021/03/18 15:28:33;;;;;;;1.30;1.30;;;6.80;99.90;;;;;;5032817;28;20226;-77
2021/03/18 15:31:01;;;;;;;1.10;1.10;;;6.70;99.90;;;;;;5035178;28;20205;-76
2021/03/18 15:33:27;;;;;;;1.20;1.20;;;6.80;99.90;;;;;;5034921;28;20202;-77
2021/03/18 15:35:55;;;;;;;1.20;1.20;;;6.60;99.90;;;;;;5035227;28;20207;-77
2021/03/18 15:38:23;;;;;;;1.20;1.20;;;6.60;99.90;;;;;;5037765;28;20562;-77
2021/03/18 15:40:51;;;;;;;1.10;1.10;;;6.50;99.90;;;;;;5036596;28;20213;-80
2021/03/18 15:43:18;;;;;;;1.13;1.13;;;6.40;99.90;;;;;;5038383;28;20357;-79
2021/03/18 15:45:48;;;;;;;1.23;1.23;;;6.50;99.90;;;;;;5027646;28;20199;-81
2021/03/18 15:48:16;;;;;;;1.10;1.10;;;6.40;99.90;;;;;;5038245;28;20233;-80
2021/03/18 15:50:44;;;;;;;1.00;1.00;;;6.40;99.90;;;;;;5039328;28;20683;-79
2021/03/18 15:53:12;;;;;;;0.93;0.93;;;6.60;99.90;;;;;;5037800;28;20683;-79
2021/03/18 15:55:39;;;;;;;1.13;1.13;;;6.50;99.90;;;;;;5032393;28;20217;-80
2021/03/18 15:58:07;;;;;;;1.10;1.10;;;6.80;99.90;;;;;;5041019;28;20834;-80
2021/03/18 16:00:35;;;;;;;1.10;1.10;;;7.00;99.90;;;;;;5037337;28;20199;-80
2021/03/18 16:03:03;;;;;;;1.00;1.00;;;6.80;99.90;;;;;;5040082;28;20659;-82
2021/03/18 16:05:30;;;;;;;1.00;1.00;;;7.00;99.90;;;;;;5037383;28;20277;-80
2021/03/18 16:07:59;;;;;;;1.00;1.00;;;7.20;99.90;;;;;;5037443;28;20292;-80
2021/03/18 16:10:28;;;;;;;1.00;1.00;;;7.30;99.90;;;;;;5037074;28;20203;-80
2021/03/18 16:12:55;;;;;;;1.10;1.10;;;7.20;99.90;;;;;;5038485;28;20198;-80
2021/03/18 16:15:23;;;;;;;1.35;1.35;;;7.20;99.90;;;;;;5037094;28;20261;-80
2021/03/18 16:17:51;;;;;;;1.00;1.00;;;7.10;99.90;;;;;;5037317;28;20211;-79
2021/03/18 16:20:20;;;;;;;1.10;1.10;;;7.00;99.90;;;;;;5037303;28;20206;-80
2021/03/18 16:22:48;;;;;;;1.20;1.20;;;7.00;99.90;;;;;;5037793;28;20207;-80
2021/03/18 16:25:16;;;;;;;1.30;1.30;;;6.90;99.90;;;;;;5037020;28;20256;-80
2021/03/18 16:27:44;;;;;;;1.10;1.10;;;6.90;99.90;;;;;;5037329;28;20226;-80
2021/03/18 16:30:14;;;;;;;1.07;1.07;;;6.90;99.90;;;;;;5037396;28;20234;-80
2021/03/18 16:33:02;;;;;;;1.20;1.20;;;6.80;99.90;;;;;;5036774;28;20238;-80
2021/03/18 16:35:33;;;;;;;1.07;1.07;;;6.90;99.90;;;;;;5035269;28;20210;-81
2021/03/18 16:38:01;;;;;;;0.90;0.90;;;6.90;99.90;;;;;;5036980;28;20218;-81
2021/03/18 16:40:28;;;;;;;1.20;1.20;;;6.90;99.90;;;;;;5035474;28;20835;-81
2021/03/18 16:42:55;;;;;;;1.10;1.10;;;6.90;99.90;;;;;;5036630;28;20737;-81
2021/03/18 16:45:22;;;;;;;1.10;1.10;;;6.90;99.90;;;;;;5039236;28;20978;-83
2021/03/18 16:47:49;;;;;;;1.00;1.00;;;6.80;99.90;;;;;;5037332;28;20230;-82
2021/03/18 16:50:17;;;;;;;1.00;1.00;;;6.60;99.90;;;;;;5040264;28;20574;-81
2021/03/18 16:52:44;;;;;;;1.07;1.07;;;6.50;99.90;;;;;;5032486;28;20707;-81
2021/03/18 16:55:14;;;;;;;1.00;1.00;;;6.50;99.90;;;;;;5033483;28;20721;-80
2021/03/18 16:57:42;;;;;;;1.03;1.03;;;6.50;99.90;;;;;;5040809;28;20593;-81
2021/03/18 17:00:13;;;;;;;1.30;1.30;;;6.30;99.90;;;;;;5039897;28;20203;-81
2021/03/18 17:02:40;;;;;;;1.20;1.20;;;6.20;99.90;;;;;;5041174;28;20268;-81
2021/03/18 17:05:09;;;;;;;1.10;1.10;;;5.90;99.90;;;;;;5038650;28;20575;-80
2021/03/18 17:07:37;;;;;;;1.20;1.20;;;5.70;99.90;;;;;;5036839;28;20230;-80
2021/03/18 17:10:06;;;;;;;1.10;1.10;;;5.50;99.90;;;;;;5036389;28;20248;-78
2021/03/18 17:12:33;;;;;;;1.33;1.33;;;5.50;99.90;;;;;;5036258;28;20226;-79
2021/03/18 17:15:09;;;;;;;1.20;1.20;;;5.40;99.90;;;;;;5036015;28;20212;-81
2021/03/18 17:17:36;;;;;;;1.10;1.10;;;5.50;99.90;;;;;;5038770;28;20715;-80
2021/03/18 17:20:05;;;;;;;1.10;1.10;;;5.50;99.90;;;;;;5036116;28;20211;-80
2021/03/18 17:22:32;;;;;;;1.20;1.20;;;5.60;99.90;;;;;;5037913;28;20203;-79
2021/03/18 17:25:07;;;;;;;1.30;1.30;;;5.50;99.90;;;;;;5039157;28;20598;-81
2021/03/18 17:27:34;;;;;;;1.40;1.40;;;5.30;99.90;;;;;;5035080;28;20655;-76
2021/03/18 17:30:03;;;;;;;1.40;1.40;;;5.30;99.90;;;;;;5021427;28;20237;-81
2021/03/18 17:32:31;;;;;;;1.30;1.30;;;5.30;99.90;;;;;;5030806;28;20203;-80
2021/03/18 17:34:58;;;;;;;1.20;1.20;;;5.20;99.90;;;;;;5048942;28;20198;-80
2021/03/18 17:37:25;;;;;;;1.20;1.20;;;5.20;99.90;;;;;;5057963;28;20202;-82
2021/03/18 17:39:52;;;;;;;1.20;1.20;;;4.90;99.90;;;;;;5057940;28;20214;-82
2021/03/18 17:42:20;;;;;;;1.30;1.30;;;5.00;99.90;;;;;;5058644;28;20206;-82
2021/03/18 17:44:48;;;;;;;1.20;1.20;;;5.00;99.90;;;;;;5057950;28;20266;-82
2021/03/18 17:47:15;;;;;;;1.13;1.13;;;;;;;;;;5051868;28;20642;-80
2021/03/18 17:49:42;;;;;;;1.10;1.10;;;5.00;99.90;;;;;;5036005;28;20714;-82
2021/03/18 17:52:09;;;;;;;1.20;1.20;;;;;;;;;;5053209;28;20209;-82
2021/03/18 17:54:37;;;;;;;1.20;1.20;;;;;;;;;;5058356;28;20232;-82
2021/03/18 17:57:04;;;;;;;1.00;1.00;;;4.80;99.90;;;;;;5057856;28;20198;-82
2021/03/18 17:59:32;;;;;;;1.50;1.50;;;4.70;99.90;;;;;;5058403;28;20245;-82
2021/03/18 18:01:59;;;;;;;1.30;1.30;;;;;;;;;;5056957;28;20205;-80
2021/03/18 18:04:27;;;;;;;1.17;1.17;;;4.60;99.90;;;;;;5056540;28;20442;-81
2021/03/18 18:06:54;;;;;;;1.30;1.30;;;4.60;99.90;;;;;;5053251;28;20197;-76
2021/03/18 18:09:21;;;;;;;1.30;1.30;;;4.60;99.90;;;;;;5051747;28;20229;-76
2021/03/18 18:11:48;;;;;;;1.20;1.20;;;4.40;99.90;;;;;;5057108;28;20201;-79
2021/03/18 18:14:17;;;;;;;1.20;1.20;;;4.20;99.90;;;;;;5058618;28;20202;-80
2021/03/18 18:16:44;;;;;;;1.13;1.13;;;4.20;99.90;;;;;;5056074;28;20214;-81
2021/03/18 18:19:14;;;;;;;1.10;1.10;;;;;;;;;;5055986;28;20296;-81
2021/03/18 18:21:42;;;;;;;1.10;1.10;;;4.20;99.90;;;;;;5059721;28;20257;-80
2021/03/18 18:24:10;;;;;;;1.30;1.30;;;4.20;99.90;;;;;;5059020;28;20260;-82